Time;durP1;ratioP1;P1;durP2;ratioP2;P2;SDS_P1;SDS_P2;PMS_P1;PMS_P2;Temp;Humidity;BMP_temperature;BMP_pressure;BME280_temperature;BME280_humidity;BME280_pressure;Samples;Min_cycle;Max_cycle;Signal;HPM_P1;HPM_P2
2022/04/04 00:00:09;;;;;;;;;;;18.00;99.90;;;;;;5088321;28;20312;-57
2022/04/04 00:02:36;;;;;;;;;;;18.00;99.90;;;;;;5086985;28;20137;-59
2022/04/04 00:05:04;;;;;;;;;;;18.00;99.90;;;;;;5069765;28;20297;-58
2022/04/04 00:07:31;;;;;;;;;;;18.00;99.90;;;;;;5091113;28;19924;-59
2022/04/04 00:09:59;;;;;;;;;;;18.00;99.90;;;;;;5098175;28;19927;-57
2022/04/04 00:12:26;;;;;;;;;;;18.00;99.90;;;;;;5106827;28;19923;-56
2022/04/04 00:14:53;;;;;;;;;;;18.00;99.90;;;;;;5095619;28;19919;-57
2022/04/04 00:17:21;;;;;;;;;;;18.00;99.90;;;;;;5099172;28;19927;-56
2022/04/04 00:19:48;;;;;;;;;;;18.00;99.90;;;;;;5088162;28;19927;-56
2022/04/04 00:22:15;;;;;;;;;;;18.00;99.90;;;;;;5105613;28;19923;-54
2022/04/04 00:24:43;;;;;;;;;;;17.90;99.90;;;;;;5070194;28;19930;-57
2022/04/04 00:27:10;;;;;;;;;;;17.90;99.90;;;;;;5087488;28;19928;-60
2022/04/04 00:29:37;;;;;;;;;;;17.90;99.90;;;;;;5087359;28;19967;-59
2022/04/04 00:32:04;;;;;;;;;;;17.90;99.90;;;;;;5087018;28;19924;-56
2022/04/04 00:34:32;;;;;;;;;;;17.90;99.90;;;;;;5069274;28;19924;-55
2022/04/04 00:36:59;;;;;;;;;;;17.90;99.90;;;;;;5091857;28;19950;-59
2022/04/04 00:39:26;;;;;;;;;;;17.80;99.90;;;;;;5087947;28;19931;-57
2022/04/04 00:41:53;;;;;;;;;;;17.80;99.90;;;;;;5094251;28;19920;-58
2022/04/04 00:44:21;;;;;;;;;;;17.80;99.90;;;;;;5090403;28;20414;-57
2022/04/04 00:46:48;;;;;;;;;;;17.80;99.90;;;;;;5085568;28;19927;-57
2022/04/04 00:49:15;;;;;;;;;;;17.80;99.90;;;;;;5098506;28;19927;-57
2022/04/04 00:51:42;;;;;;;;;;;17.80;99.90;;;;;;5090902;28;19928;-58
2022/04/04 00:54:09;;;;;;;;;;;17.80;99.90;;;;;;5087816;28;19930;-54
2022/04/04 00:56:37;;;;;;;;;;;17.80;99.90;;;;;;5092761;28;19932;-57
2022/04/04 00:59:12;;;;;;;;;;;17.80;99.90;;;;;;5107048;28;19932;-61
2022/04/04 01:01:41;;;;;;;;;;;17.80;99.90;;;;;;5092412;28;19935;-59
2022/04/04 01:04:11;;;;;;;;;;;17.80;99.90;;;;;;5088087;28;19920;-59
2022/04/04 01:06:39;;;;;;;;;;;17.80;99.90;;;;;;5087836;28;20314;-59
2022/04/04 01:09:06;;;;;;;;;;;17.80;99.90;;;;;;5095656;28;20268;-60
2022/04/04 01:11:34;;;;;;;;;;;17.80;99.90;;;;;;5094109;28;19920;-57
2022/04/04 01:14:02;;;;;;;;;;;17.80;99.90;;;;;;5102844;28;19950;-57
2022/04/04 01:16:29;;;;;;;;;;;17.80;99.90;;;;;;5097178;28;20400;-59
2022/04/04 01:18:56;;;;;;;;;;;17.70;99.90;;;;;;5104799;28;19928;-59
2022/04/04 01:21:23;;;;;;;;;;;17.80;99.90;;;;;;5091717;28;19927;-59
2022/04/04 01:23:52;;;;;;;;;;;17.70;99.90;;;;;;5087854;28;19924;-57
2022/04/04 01:26:20;;;;;;;;;;;17.70;99.90;;;;;;5090832;28;20396;-56
2022/04/04 01:28:47;;;;;;;;;;;17.70;99.90;;;;;;5091021;28;19931;-55
2022/04/04 01:31:14;;;;;;;;;;;17.70;99.90;;;;;;5097017;28;20285;-57
2022/04/04 01:33:42;;;;;;;;;;;17.70;99.90;;;;;;5100055;28;19927;-56
2022/04/04 01:36:09;;;;;;;;;;;17.70;99.90;;;;;;5090700;28;20011;-57
2022/04/04 01:38:36;;;;;;;;;;;17.70;99.90;;;;;;5099335;28;19923;-58
2022/04/04 01:41:03;;;;;;;;;;;17.70;99.90;;;;;;5092672;28;19924;-56
2022/04/04 01:43:30;;;;;;;;;;;17.70;99.90;;;;;;5090224;28;19942;-59
2022/04/04 01:48:44;;;;;;;;;;;17.70;99.90;;;;;;5110286;28;19936;-58
2022/04/04 01:51:11;;;;;;;;;;;17.70;99.90;;;;;;5093009;28;19931;-58
2022/04/04 01:53:38;;;;;;;;;;;17.70;99.90;;;;;;5095455;28;20305;-58
2022/04/04 01:56:06;;;;;;;;;;;17.60;99.90;;;;;;5090545;28;19923;-58
2022/04/04 01:58:33;;;;;;;;;;;17.60;99.90;;;;;;5091827;28;19920;-56
2022/04/04 02:01:16;;;;;;;;;;;17.60;99.90;;;;;;5092523;28;19924;-60
2022/04/04 02:03:45;;;;;;;;;;;17.60;99.90;;;;;;5100351;28;20453;-57
2022/04/04 02:06:13;;;;;;;;;;;17.60;99.90;;;;;;5095651;28;19924;-59
2022/04/04 02:08:42;;;;;;;;;;;17.60;99.90;;;;;;5094899;28;19924;-57
2022/04/04 02:11:10;;;;;;;;;;;17.60;99.90;;;;;;5089671;28;19930;-58
2022/04/04 02:13:39;;;;;;;;;;;17.70;99.90;;;;;;5071479;28;19920;-55
2022/04/04 02:16:06;;;;;;;;;;;17.60;99.90;;;;;;5098091;28;19931;-55
2022/04/04 02:18:34;;;;;;;;;;;17.60;99.90;;;;;;5096817;28;19929;-53
2022/04/04 02:21:02;;;;;;;;;;;17.60;99.90;;;;;;5089467;28;19924;-58
2022/04/04 02:23:29;;;;;;;;;;;17.60;99.90;;;;;;5096195;28;20308;-59
2022/04/04 02:25:57;;;;;;;;;;;17.60;99.90;;;;;;5089565;28;19931;-59
2022/04/04 02:28:25;;;;;;;;;;;17.60;99.90;;;;;;5088667;28;19924;-57
2022/04/04 02:30:54;;;;;;;;;;;17.60;99.90;;;;;;5090732;28;19923;-57
2022/04/04 02:33:22;;;;;;;;;;;17.60;99.90;;;;;;5089598;28;20695;-56
2022/04/04 02:35:50;;;;;;;;;;;17.60;99.90;;;;;;5089274;28;20411;-54
2022/04/04 02:38:19;;;;;;;;;;;17.60;99.90;;;;;;5089316;28;20392;-58
2022/04/04 02:40:46;;;;;;;;;;;17.60;99.90;;;;;;5089650;28;19924;-57
2022/04/04 02:43:13;;;;;;;;;;;17.60;99.90;;;;;;5088992;28;19924;-58
2022/04/04 02:45:41;;;;;;;;;;;17.60;99.90;;;;;;5095655;28;20168;-56
2022/04/04 02:48:09;;;;;;;;;;;17.50;99.90;;;;;;5089948;28;19919;-58
2022/04/04 02:50:36;;;;;;;;;;;17.50;99.90;;;;;;5106650;28;19931;-57
2022/04/04 02:53:03;;;;;;;;;;;17.50;99.90;;;;;;5089526;28;20394;-58
2022/04/04 02:58:16;;;;;;;;;;;17.50;99.90;;;;;;5089839;28;19951;-60
2022/04/04 03:00:44;;;;;;;;;;;17.50;99.90;;;;;;5088786;28;20510;-59
2022/04/04 03:03:11;;;;;;;;;;;17.50;99.90;;;;;;5092451;28;19923;-59
2022/04/04 03:05:39;;;;;;;;;;;17.50;99.90;;;;;;5097430;28;19920;-59
2022/04/04 03:08:06;;;;;;;;;;;17.40;99.90;;;;;;5089250;28;19930;-58
2022/04/04 03:10:34;;;;;;;;;;;17.40;99.90;;;;;;5079067;28;19923;-57
2022/04/04 03:13:02;;;;;;;;;;;17.40;99.90;;;;;;5095677;28;19924;-57
2022/04/04 03:15:29;;;;;;;;;;;17.40;99.90;;;;;;5095790;28;19920;-59
2022/04/04 03:17:57;;;;;;;;;;;17.40;99.90;;;;;;5092960;28;20290;-59
2022/04/04 03:20:25;;;;;;;;;;;17.40;99.90;;;;;;5090055;28;19920;-57
2022/04/04 03:22:54;;;;;;;;;;;17.40;99.90;;;;;;5102281;28;19938;-59
2022/04/04 03:25:22;;;;;;;;;;;17.40;99.90;;;;;;5087995;28;20384;-57
2022/04/04 03:27:50;;;;;;;;;;;17.40;99.90;;;;;;5100682;28;20296;-59
2022/04/04 03:30:18;;;;;;;;;;;17.40;99.90;;;;;;5088882;28;20286;-57
2022/04/04 03:32:46;;;;;;;;;;;17.40;99.90;;;;;;5088482;28;20383;-60
2022/04/04 03:35:16;;;;;;;;;;;17.30;99.90;;;;;;5088368;28;19924;-59
2022/04/04 03:37:45;;;;;;;;;;;17.30;99.90;;;;;;5089066;28;20300;-59
2022/04/04 03:40:13;;;;;;;;;;;17.30;99.90;;;;;;5091909;28;20304;-58
2022/04/04 03:42:42;;;;;;;;;;;17.30;99.90;;;;;;5108875;28;19924;-58
2022/04/04 03:45:11;;;;;;;;;;;17.30;99.90;;;;;;5086247;28;20373;-58
2022/04/04 03:47:39;;;;;;;;;;;17.30;99.90;;;;;;5090733;28;19920;-59
2022/04/04 03:50:06;;;;;;;;;;;17.30;99.90;;;;;;5088904;28;19938;-59
2022/04/04 03:52:34;;;;;;;;;;;17.30;99.90;;;;;;5088054;28;19924;-59
2022/04/04 03:55:02;;;;;;;;;;;17.30;99.90;;;;;;5095737;28;19924;-55
2022/04/04 03:57:29;;;;;;;;;;;17.30;99.90;;;;;;5093622;28;19924;-59
2022/04/04 03:59:56;;;;;;;;;;;17.40;99.90;;;;;;5091731;28;20380;-59
2022/04/04 04:02:23;;;;;;;;;;;17.40;99.90;;;;;;5088386;28;19924;-58
2022/04/04 04:04:51;;;;;;;;;;;17.60;99.90;;;;;;5093845;28;19927;-59
2022/04/04 04:07:21;;;;;;;;;;;17.80;99.90;;;;;;5080830;28;20112;-59
2022/04/04 04:09:48;;;;;;;;;;;17.90;99.90;;;;;;5074577;28;20403;-57
2022/04/04 04:12:16;;;;;;;;;;;18.10;99.90;;;;;;5083664;28;19924;-59
2022/04/04 04:14:43;;;;;;;;;;;18.10;99.90;;;;;;5098808;28;19950;-59
2022/04/04 04:17:10;;;;;;;;;;;18.20;99.90;;;;;;5101792;28;20414;-58
2022/04/04 04:22:23;;;;;;;;;;;18.10;99.90;;;;;;5096334;28;19940;-58
2022/04/04 04:24:50;;;;;;;;;;;18.20;99.90;;;;;;5084743;28;20306;-58
2022/04/04 04:27:18;;;;;;;;;;;18.10;99.90;;;;;;5105615;28;19920;-53
2022/04/04 04:29:45;;;;;;;;;;;18.10;99.90;;;;;;5103136;28;19951;-58
2022/04/04 04:32:13;;;;;;;;;;;18.10;99.90;;;;;;5104120;28;19927;-58
2022/04/04 04:34:46;;;;;;;;;;;18.20;99.90;;;;;;5101921;28;20400;-58
2022/04/04 04:37:13;;;;;;;;;;;18.20;99.90;;;;;;5077526;28;20257;-58
2022/04/04 04:39:40;;;;;;;;;;;18.10;99.90;;;;;;5094239;28;19938;-53
2022/04/04 04:42:07;;;;;;;;;;;18.10;99.90;;;;;;5098198;28;20033;-59
2022/04/04 04:44:35;;;;;;;;;;;18.10;99.90;;;;;;5099901;28;19935;-55
2022/04/04 04:47:02;;;;;;;;;;;18.00;99.90;;;;;;5098258;28;19970;-58
2022/04/04 04:49:29;;;;;;;;;;;18.00;99.90;;;;;;5101975;28;19930;-59
2022/04/04 04:51:57;;;;;;;;;;;17.90;99.90;;;;;;5097313;28;20136;-59
2022/04/04 04:54:26;;;;;;;;;;;17.90;99.90;;;;;;5103122;28;19919;-59
2022/04/04 04:56:53;;;;;;;;;;;17.90;99.90;;;;;;5103294;28;19928;-56
2022/04/04 04:59:20;;;;;;;;;;;17.90;99.90;;;;;;5094288;28;19924;-55
2022/04/04 05:01:47;;;;;;;;;;;17.90;99.90;;;;;;5104935;28;20419;-58
2022/04/04 05:04:14;;;;;;;;;;;17.80;99.90;;;;;;5106375;28;19935;-59
2022/04/04 05:06:42;;;;;;;;;;;17.90;99.90;;;;;;5098001;28;19934;-56
2022/04/04 05:09:09;;;;;;;;;;;18.00;99.90;;;;;;5081637;28;20082;-58
2022/04/04 05:11:36;;;;;;;;;;;18.00;99.90;;;;;;5093635;28;19931;-58
2022/04/04 05:14:05;;;;;;;;;;;18.00;99.90;;;;;;5085924;28;19923;-54
2022/04/04 05:16:32;;;;;;;;;;;18.10;99.90;;;;;;5098688;28;20406;-56
2022/04/04 05:18:59;;;;;;;;;;;18.10;99.90;;;;;;5100934;28;20422;-59
2022/04/04 05:21:26;;;;;;;;;;;18.10;99.90;;;;;;5086842;28;19930;-59
2022/04/04 05:23:53;;;;;;;;;;;18.20;99.90;;;;;;5089426;28;20020;-58
2022/04/04 05:26:21;;;;;;;;;;;18.20;99.90;;;;;;5104394;28;19930;-58
2022/04/04 05:28:48;;;;;;;;;;;18.20;99.90;;;;;;5089895;28;20400;-54
2022/04/04 05:31:15;;;;;;;;;;;18.20;99.90;;;;;;5096891;28;19927;-57
2022/04/04 05:33:43;;;;;;;;;;;18.20;99.90;;;;;;5104392;28;20042;-59
2022/04/04 05:36:10;;;;;;;;;;;18.20;99.90;;;;;;5096871;28;20033;-57
2022/04/04 05:38:37;;;;;;;;;;;18.20;99.90;;;;;;5086697;28;20389;-58
2022/04/04 05:41:04;;;;;;;;;;;18.00;98.80;;;;;;5091052;28;20419;-58
2022/04/04 05:43:31;;;;;;;;;;;17.20;93.60;;;;;;5098699;28;19924;-58
2022/04/04 05:45:58;;;;;;;;;;;17.30;97.10;;;;;;5093202;28;20631;-60
2022/04/04 05:48:30;;;;;;;;;;;17.70;96.70;;;;;;5106926;28;20319;-60
2022/04/04 05:50:57;;;;;;;;;;;18.20;96.30;;;;;;5101305;28;19987;-58
2022/04/04 05:53:24;;;;;;;;;;;18.50;96.40;;;;;;5105460;28;19923;-59
2022/04/04 05:55:52;;;;;;;;;;;18.80;96.30;;;;;;5091575;28;19924;-60
2022/04/04 05:58:19;;;;;;;;;;;19.10;96.30;;;;;;5104275;28;19924;-57
2022/04/04 06:00:46;;;;;;;;;;;19.30;96.20;;;;;;5088442;28;20374;-58
2022/04/04 06:03:13;;;;;;;;;;;19.50;96.30;;;;;;5096090;28;20223;-64
2022/04/04 06:05:41;;;;;;;;;;;19.60;96.30;;;;;;5106847;28;20387;-60
2022/04/04 06:08:08;;;;;;;;;;;19.80;96.80;;;;;;5106032;28;19920;-60
2022/04/04 06:10:35;;;;;;;;;;;19.90;96.70;;;;;;5102551;28;20398;-63
2022/04/04 06:13:02;;;;;;;;;;;20.00;97.10;;;;;;5087050;28;20340;-58
2022/04/04 06:15:30;;;;;;;;;;;20.10;97.30;;;;;;5091178;28;19938;-58
2022/04/04 06:17:57;;;;;;;;;;;20.20;97.40;;;;;;5104552;28;19924;-57
2022/04/04 06:20:25;;;;;;;;;;;20.20;97.60;;;;;;5088053;28;19930;-60
2022/04/04 06:22:52;;;;;;;;;;;20.30;97.80;;;;;;5108104;28;20271;-57
2022/04/04 06:25:21;;;;;;;;;;;20.40;98.60;;;;;;5108011;28;19923;-59
2022/04/04 06:27:49;;;;;;;;;;;20.40;98.90;;;;;;5101891;28;20387;-60
2022/04/04 06:30:17;;;;;;;;;;;20.50;99.80;;;;;;5121093;28;20440;-64
2022/04/04 06:32:44;;;;;;;;;;;20.50;99.90;;;;;;5121603;28;19919;-62
2022/04/04 06:35:12;;;;;;;;;;;20.50;99.90;;;;;;5113659;28;19923;-62
2022/04/04 06:37:39;;;;;;;;;;;20.50;99.90;;;;;;5106958;28;19927;-61
2022/04/04 06:40:07;;;;;;;;;;;20.60;99.90;;;;;;5109118;28;19924;-58
2022/04/04 06:42:38;;;;;;;;;;;20.70;99.70;;;;;;5093034;28;19927;-60
2022/04/04 06:45:06;;;;;;;;;;;20.70;99.20;;;;;;5101660;28;19924;-64
2022/04/04 06:47:33;;;;;;;;;;;20.80;98.80;;;;;;5107863;28;19919;-59
2022/04/04 06:50:00;;;;;;;;;;;20.90;98.50;;;;;;5106448;28;19934;-61
2022/04/04 06:52:28;;;;;;;;;;;20.90;98.20;;;;;;5102823;28;19931;-61
2022/04/04 06:54:56;;;;;;;;;;;20.90;98.00;;;;;;5089228;28;19924;-58
2022/04/04 06:57:23;;;;;;;;;;;20.90;97.80;;;;;;5102088;28;19920;-59
2022/04/04 06:59:51;;;;;;;;;;;20.90;97.60;;;;;;5104688;28;19927;-60
2022/04/04 07:02:18;;;;;;;;;;;21.00;97.50;;;;;;5105918;28;19932;-60
2022/04/04 07:04:45;;;;;;;;;;;21.00;97.20;;;;;;5106907;28;19923;-59
2022/04/04 07:07:14;;;;;;;;;;;21.00;96.90;;;;;;5100772;28;19930;-59
2022/04/04 07:09:41;;;;;;;;;;;20.90;96.70;;;;;;5101659;28;20375;-60
2022/04/04 07:12:09;;;;;;;;;;;21.00;96.70;;;;;;5101192;28;19926;-58
2022/04/04 07:14:36;;;;;;;;;;;21.00;97.20;;;;;;5094618;28;19986;-59
2022/04/04 07:17:03;;;;;;;;;;;21.00;97.30;;;;;;5103671;28;19927;-59
2022/04/04 07:19:33;;;;;;;;;;;21.10;97.50;;;;;;5105173;28;19920;-58
2022/04/04 07:22:00;;;;;;;;;;;21.10;97.60;;;;;;5106296;28;19920;-60
2022/04/04 07:24:28;;;;;;;;;;;21.20;97.80;;;;;;5103441;28;19923;-60
2022/04/04 07:26:56;;;;;;;;;;;21.30;97.90;;;;;;5097784;28;19923;-58
2022/04/04 07:29:23;;;;;;;;;;;21.20;98.00;;;;;;5086775;28;19926;-61
2022/04/04 07:31:51;;;;;;;;;;;21.10;98.20;;;;;;5099119;28;19946;-60
2022/04/04 07:34:18;;;;;;;;;;;21.10;98.30;;;;;;5104374;28;19928;-60
2022/04/04 07:36:45;;;;;;;;;;;21.10;98.50;;;;;;5103443;28;20438;-61
2022/04/04 07:39:12;;;;;;;;;;;21.10;98.60;;;;;;5098252;28;20360;-60
2022/04/04 07:41:39;;;;;;;;;;;21.00;98.70;;;;;;5088115;28;19920;-59
2022/04/04 07:44:06;;;;;;;;;;;21.00;98.80;;;;;;5101944;28;20439;-59
2022/04/04 07:46:33;;;;;;;;;;;20.90;98.90;;;;;;5104082;28;19950;-60
2022/04/04 07:49:01;;;;;;;;;;;20.90;99.10;;;;;;5105618;28;20312;-60
2022/04/04 07:51:28;;;;;;;;;;;20.80;99.30;;;;;;5075562;28;20235;-59
2022/04/04 07:53:55;;;;;;;;;;;20.80;99.40;;;;;;5104225;28;19934;-59
2022/04/04 07:56:23;;;;;;;;;;;20.80;99.60;;;;;;5101811;28;19958;-60
2022/04/04 07:58:50;;;;;;;;;;;20.70;99.60;;;;;;5095308;28;19930;-58
2022/04/04 08:01:17;;;;;;;;;;;20.70;99.70;;;;;;5100697;28;19923;-58
2022/04/04 08:03:50;;;;;;;;;;;20.70;99.80;;;;;;5106870;28;19924;-59
2022/04/04 08:06:17;;;;;;;;;;;20.70;99.90;;;;;;5097591;28;19924;-60
2022/04/04 08:08:44;;;;;;;;;;;20.60;99.90;;;;;;5096893;28;19924;-58
2022/04/04 08:11:11;;;;;;;;;;;20.60;99.90;;;;;;5098673;28;19935;-62
2022/04/04 08:13:43;;;;;;;;;;;20.60;99.90;;;;;;5099545;28;19927;-61
2022/04/04 08:16:11;;;;;;;;;;;20.60;99.90;;;;;;5102281;28;20402;-56
2022/04/04 08:18:38;;;;;;;;;;;20.60;99.90;;;;;;5101958;28;19920;-62
2022/04/04 08:21:07;;;;;;;;;;;20.70;99.90;;;;;;5098878;28;19930;-59
2022/04/04 08:23:34;;;;;;;;;;;20.80;99.90;;;;;;5104593;28;19930;-59
2022/04/04 08:26:01;;;;;;;;;;;20.80;99.70;;;;;;5105891;28;19924;-63
2022/04/04 08:28:29;;;;;;;;;;;20.90;99.70;;;;;;5105593;28;19923;-62
2022/04/04 08:30:58;;;;;;;;;;;21.00;99.40;;;;;;5096888;28;20510;-62
2022/04/04 08:33:27;;;;;;;;;;;21.10;99.30;;;;;;5089141;28;19927;-62
2022/04/04 08:35:57;;;;;;;;;;;21.20;99.20;;;;;;5070858;28;20278;-63
2022/04/04 08:38:24;;;;;;;;;;;21.20;99.40;;;;;;5091675;28;19920;-61
2022/04/04 08:40:52;;;;;;;;;;;21.30;99.30;;;;;;5070726;28;19951;-59
2022/04/04 08:43:19;;;;;;;;;;;21.40;99.20;;;;;;5068316;28;20575;-63
2022/04/04 08:45:48;;;;;;;;;;;21.50;99.10;;;;;;5092533;28;19931;-57
2022/04/04 08:48:16;;;;;;;;;;;21.50;98.90;;;;;;5096083;28;19949;-54
2022/04/04 08:50:44;;;;;;;;;;;21.40;99.10;;;;;;5093959;28;19931;-58
2022/04/04 08:53:11;;;;;;;;;;;21.50;99.00;;;;;;5097994;28;19930;-59
2022/04/04 08:55:39;;;;;;;;;;;21.40;99.10;;;;;;5095701;28;19927;-57
2022/04/04 08:58:06;;;;;;;;;;;21.40;99.10;;;;;;5093806;28;19935;-57
2022/04/04 09:00:36;;;;;;;;;;;21.40;99.10;;;;;;5088686;28;19924;-57
2022/04/04 09:03:04;;;;;;;;;;;21.40;99.20;;;;;;5090913;28;19919;-58
2022/04/04 09:05:35;;;;;;;;;;;21.40;99.20;;;;;;5096772;28;19944;-60
2022/04/04 09:08:05;;;;;;;;;;;21.40;99.20;;;;;;5093846;28;20388;-63
2022/04/04 09:10:36;;;;;;;;;;;21.30;99.40;;;;;;5089649;28;19923;-62
2022/04/04 09:13:07;;;;;;;;;;;21.20;99.50;;;;;;5100521;28;19931;-61
2022/04/04 09:15:53;;;;;;;;;;;21.10;99.50;;;;;;5095566;28;20404;-59
2022/04/04 09:18:40;;;;;;;;;;;21.00;99.70;;;;;;5101504;28;19920;-60
2022/04/04 09:21:20;;;;;;;;;;;21.00;99.80;;;;;;5091987;28;20391;-62
2022/04/04 09:23:48;;;;;;;;;;;20.90;99.90;;;;;;5093649;28;19935;-57
2022/04/04 09:26:32;;;;;;;;;;;20.90;99.90;;;;;;5089494;28;19924;-60
2022/04/04 09:29:01;;;;;;;;;;;20.90;99.90;;;;;;5083456;28;19927;-60
2022/04/04 09:31:28;;;;;;;;;;;20.90;99.90;;;;;;5103042;28;19924;-61
2022/04/04 09:33:59;;;;;;;;;;;20.90;99.90;;;;;;5105836;28;19924;-60
2022/04/04 09:36:27;;;;;;;;;;;20.80;99.90;;;;;;5104629;28;20257;-61
2022/04/04 09:39:10;;;;;;;;;;;20.80;99.90;;;;;;5110185;28;19924;-62
2022/04/04 09:41:39;;;;;;;;;;;20.80;99.90;;;;;;5108253;28;19927;-60
2022/04/04 09:44:11;;;;;;;;;;;20.80;99.90;;;;;;5100093;28;20263;-59
2022/04/04 09:46:42;;;;;;;;;;;20.70;99.90;;;;;;5104425;28;20033;-62
2022/04/04 09:49:14;;;;;;;;;;;20.70;99.90;;;;;;5109250;28;19930;-62
2022/04/04 09:51:54;;;;;;;;;;;20.60;99.90;;;;;;5099230;28;19934;-63
2022/04/04 09:54:23;;;;;;;;;;;20.60;99.90;;;;;;5106187;28;19923;-60
2022/04/04 09:57:09;;;;;;;;;;;20.70;99.90;;;;;;5096522;28;19930;-61
2022/04/04 09:59:39;;;;;;;;;;;20.80;99.90;;;;;;5102277;28;19926;-61
2022/04/04 10:02:07;;;;;;;;;;;20.90;99.90;;;;;;5101535;28;19935;-59
2022/04/04 10:04:42;;;;;;;;;;;21.10;99.90;;;;;;5102040;28;19952;-60
2022/04/04 10:07:10;;;;;;;;;;;21.20;99.90;;;;;;5100480;28;19938;-62
2022/04/04 10:09:38;;;;;;;;;;;21.30;99.70;;;;;;5090492;28;19934;-63
2022/04/04 10:12:06;;;;;;;;;;;21.40;99.60;;;;;;5100960;28;20299;-63
2022/04/04 10:14:34;;;;;;;;;;;21.40;99.20;;;;;;5107321;28;19921;-66
2022/04/04 10:17:02;;;;;;;;;;;21.50;99.10;;;;;;5103309;28;19923;-63
2022/04/04 10:19:29;;;;;;;;;;;21.50;99.20;;;;;;5104127;28;19931;-61
2022/04/04 10:21:56;;;;;;;;;;;21.50;99.20;;;;;;5097978;28;20359;-61
2022/04/04 10:24:24;;;;;;;;;;;21.50;99.10;;;;;;5104992;28;19920;-62
2022/04/04 10:26:52;;;;;;;;;;;21.50;99.20;;;;;;5101846;28;20383;-62
2022/04/04 10:29:22;;;;;;;;;;;21.30;95.10;;;;;;5106126;28;19931;-61
2022/04/04 10:31:55;;;;;;;;;;;21.10;94.90;;;;;;5102846;28;19924;-60
2022/04/04 10:34:24;;;;;;;;;;;21.00;93.70;;;;;;5094097;28;19924;-60
2022/04/04 10:36:54;;;;;;;;;;;20.90;92.60;;;;;;5102221;28;19954;-63
2022/04/04 10:39:32;;;;;;;;;;;20.80;92.30;;;;;;5100119;28;19923;-62
2022/04/04 10:41:59;;;;;;;;;;;20.80;92.30;;;;;;5093565;28;19931;-60
2022/04/04 10:44:50;;;;;;;;;;;20.90;92.70;;;;;;5094104;28;20282;-59
2022/04/04 10:47:20;;;;;;;;;;;20.90;93.10;;;;;;5089523;28;19928;-62
2022/04/04 10:49:48;;;;;;;;;;;20.90;93.60;;;;;;5099439;28;19930;-61
2022/04/04 10:52:17;;;;;;;;;;;21.00;94.00;;;;;;5106528;28;20036;-63
2022/04/04 10:54:45;;;;;;;;;;;20.90;94.30;;;;;;5100586;28;19919;-61
2022/04/04 10:57:16;;;;;;;;;;;20.90;94.70;;;;;;5093058;28;20399;-62
2022/04/04 10:59:46;;;;;;;;;;;20.90;95.00;;;;;;5089786;28;20289;-61
2022/04/04 11:02:18;;;;;;;;;;;20.90;95.30;;;;;;5075764;28;19923;-64
2022/04/04 11:07:41;;;;;;;;;;;20.80;95.80;;;;;;5103766;28;20027;-64
2022/04/04 11:10:09;;;;;;;;;;;20.80;96.00;;;;;;5094408;28;19928;-62
2022/04/04 11:12:55;;;;;;;;;;;20.80;96.20;;;;;;5069629;28;20340;-61
2022/04/04 11:15:42;;;;;;;;;;;20.80;96.30;;;;;;5091443;28;19924;-61
2022/04/04 11:18:10;;;;;;;;;;;20.70;96.40;;;;;;5096769;28;20285;-63
2022/04/04 11:20:49;;;;;;;;;;;20.80;96.50;;;;;;5095793;28;20328;-61
2022/04/04 11:23:17;;;;;;;;;;;20.90;96.50;;;;;;5107322;28;19930;-60
2022/04/04 11:25:55;;;;;;;;;;;21.00;96.40;;;;;;5107966;28;20388;-61
2022/04/04 11:28:24;;;;;;;;;;;21.10;96.30;;;;;;5091611;28;19924;-59
2022/04/04 11:30:53;;;;;;;;;;;21.20;96.20;;;;;;5088461;28;20219;-61
2022/04/04 11:33:22;;;;;;;;;;;21.30;96.10;;;;;;5088176;28;20320;-61
2022/04/04 11:35:54;;;;;;;;;;;21.40;96.00;;;;;;5087797;28;19919;-62
2022/04/04 11:38:22;;;;;;;;;;;21.50;95.90;;;;;;5093392;28;19942;-64
2022/04/04 11:40:54;;;;;;;;;;;21.50;95.90;;;;;;5104485;28;19931;-62
2022/04/04 11:43:25;;;;;;;;;;;21.50;95.80;;;;;;5089813;28;20308;-63
2022/04/04 11:45:53;;;;;;;;;;;21.50;95.80;;;;;;5086385;28;19923;-61
2022/04/04 11:48:24;;;;;;;;;;;21.50;95.80;;;;;;5108035;28;19946;-63
2022/04/04 11:50:56;;;;;;;;;;;21.40;95.90;;;;;;5095360;28;19931;-62
2022/04/04 11:53:25;;;;;;;;;;;21.40;96.00;;;;;;5100268;28;19931;-60
2022/04/04 11:56:00;;;;;;;;;;;21.40;96.10;;;;;;5088388;28;20301;-61
2022/04/04 11:58:27;;;;;;;;;;;21.30;96.20;;;;;;5089399;28;19935;-62
2022/04/04 12:01:00;;;;;;;;;;;21.30;96.30;;;;;;5093056;28;20300;-61
2022/04/04 12:03:28;;;;;;;;;;;21.30;96.40;;;;;;5089564;28;19957;-62
2022/04/04 12:05:56;;;;;;;;;;;21.20;96.50;;;;;;5087838;28;20303;-63
2022/04/04 12:08:25;;;;;;;;;;;21.20;96.60;;;;;;5097023;28;20301;-62
2022/04/04 12:10:52;;;;;;;;;;;21.10;96.60;;;;;;5088967;28;19943;-62
2022/04/04 12:13:21;;;;;;;;;;;21.10;96.70;;;;;;5088039;28;19939;-62
2022/04/04 12:15:51;;;;;;;;;;;21.00;96.80;;;;;;5096064;28;19924;-61
2022/04/04 12:18:22;;;;;;;;;;;21.00;96.80;;;;;;5094377;28;20099;-62
2022/04/04 12:20:51;;;;;;;;;;;21.00;96.90;;;;;;5090038;28;20262;-62
2022/04/04 12:26:07;;;;;;;;;;;20.90;97.00;;;;;;5098865;28;19932;-59
2022/04/04 12:28:36;;;;;;;;;;;20.80;97.00;;;;;;5091532;28;19924;-62
2022/04/04 12:31:15;;;;;;;;;;;20.80;97.00;;;;;;5093314;28;20400;-63
2022/04/04 12:33:42;;;;;;;;;;;20.80;97.20;;;;;;5103024;28;19927;-62
2022/04/04 12:36:10;;;;;;;;;;;20.70;97.30;;;;;;5091546;28;19943;-58
2022/04/04 12:38:39;;;;;;;;;;;20.70;97.30;;;;;;5100857;28;19965;-63
2022/04/04 12:41:13;;;;;;;;;;;20.70;97.30;;;;;;5088035;28;19931;-62
2022/04/04 12:43:42;;;;;;;;;;;20.90;97.20;;;;;;5087512;28;19931;-64
2022/04/04 12:46:23;;;;;;;;;;;20.90;97.10;;;;;;5106801;28;20438;-62
2022/04/04 12:49:14;;;;;;;;;;;21.00;97.00;;;;;;5093835;28;19928;-63
2022/04/04 12:51:52;;;;;;;;;;;21.10;96.80;;;;;;5087888;28;19924;-63
2022/04/04 12:54:33;;;;;;;;;;;21.20;96.70;;;;;;5087850;28;19924;-61
2022/04/04 12:57:03;;;;;;;;;;;21.20;96.60;;;;;;5087116;28;19935;-63
2022/04/04 12:59:31;;;;;;;;;;;21.30;96.50;;;;;;5088176;28;19946;-60
2022/04/04 13:02:02;;;;;;;;;;;21.40;96.40;;;;;;5095354;28;19934;-61
2022/04/04 13:04:30;;;;;;;;;;;21.40;96.60;;;;;;5090734;28;20385;-63
2022/04/04 13:06:57;;;;;;;;;;;21.40;96.30;;;;;;5087863;28;19928;-61
2022/04/04 13:09:25;;;;;;;;;;;21.40;96.40;;;;;;5087101;28;20431;-61
2022/04/04 13:11:53;;;;;;;;;;;21.40;96.30;;;;;;5070601;28;20349;-62
2022/04/04 13:14:21;;;;;;;;;;;21.40;96.40;;;;;;5096445;28;19935;-61
2022/04/04 13:16:51;;;;;;;;;;;21.30;96.30;;;;;;5091227;28;19930;-61
2022/04/04 13:19:18;;;;;;;;;;;21.30;96.70;;;;;;5087250;28;20316;-63
2022/04/04 13:21:48;;;;;;;;;;;21.30;96.40;;;;;;5097773;28;19923;-61
2022/04/04 13:24:15;;;;;;;;;;;21.20;96.40;;;;;;5092210;28;20313;-62
2022/04/04 13:26:43;;;;;;;;;;;21.20;96.50;;;;;;5102938;28;19931;-59
2022/04/04 13:29:11;;;;;;;;;;;21.10;96.50;;;;;;5096210;28;20363;-59
2022/04/04 13:31:39;;;;;;;;;;;21.10;96.50;;;;;;5085278;28;20268;-61
2022/04/04 13:34:06;;;;;;;;;;;21.00;96.60;;;;;;5095584;28;19931;-60
2022/04/04 13:36:34;;;;;;;;;;;21.00;96.70;;;;;;5095292;28;19931;-61
2022/04/04 13:39:09;;;;;;;;;;;21.00;96.70;;;;;;5093736;28;20403;-61
2022/04/04 13:41:37;;;;;;;;;;;20.90;97.10;;;;;;5090805;28;19924;-62
2022/04/04 13:44:05;;;;;;;;;;;20.90;96.90;;;;;;5091655;28;20427;-61
2022/04/04 13:46:33;;;;;;;;;;;20.90;96.90;;;;;;5107386;28;19927;-62
2022/04/04 13:49:00;;;;;;;;;;;20.80;97.20;;;;;;5094222;28;20705;-63
2022/04/04 13:51:29;;;;;;;;;;;20.80;97.00;;;;;;5101932;28;19923;-63
2022/04/04 13:53:59;;;;;;;;;;;20.80;97.10;;;;;;5095796;28;19931;-60
2022/04/04 13:56:27;;;;;;;;;;;20.80;97.10;;;;;;5101879;28;19924;-61
2022/04/04 13:58:54;;;;;;;;;;;20.70;97.10;;;;;;5094309;28;19934;-60
2022/04/04 14:01:23;;;;;;;;;;;20.80;97.10;;;;;;5100632;28;19931;-61
2022/04/04 14:03:53;;;;;;;;;;;20.80;97.10;;;;;;5090439;28;19920;-62
2022/04/04 14:06:21;;;;;;;;;;;20.90;97.00;;;;;;5091418;28;19924;-62
2022/04/04 14:08:48;;;;;;;;;;;20.90;97.00;;;;;;5090890;28;19924;-60
2022/04/04 14:11:16;;;;;;;;;;;21.00;96.80;;;;;;5097752;28;19935;-61
2022/04/04 14:13:44;;;;;;;;;;;21.10;96.70;;;;;;5091436;28;19939;-61
2022/04/04 14:16:11;;;;;;;;;;;21.20;96.60;;;;;;5108336;28;19924;-61
2022/04/04 14:18:39;;;;;;;;;;;21.20;96.50;;;;;;5098254;28;19931;-60
2022/04/04 14:21:08;;;;;;;;;;;21.30;96.40;;;;;;5089509;28;19924;-61
2022/04/04 14:23:37;;;;;;;;;;;21.30;96.40;;;;;;5089950;28;19951;-62
2022/04/04 14:26:05;;;;;;;;;;;21.40;96.30;;;;;;5096771;28;19931;-60
2022/04/04 14:28:33;;;;;;;;;;;21.40;96.20;;;;;;5093801;28;20411;-63
2022/04/04 14:31:01;;;;;;;;;;;21.40;96.10;;;;;;5100128;28;19924;-62
2022/04/04 14:33:29;;;;;;;;;;;21.50;96.10;;;;;;5089543;28;19927;-60
2022/04/04 14:35:57;;;;;;;;;;;21.50;96.00;;;;;;5094132;28;20014;-62
2022/04/04 14:38:24;;;;;;;;;;;21.40;96.00;;;;;;5105983;28;19926;-61